Decoded Metar for KCHO (CHARLOTTESVILLE in VA, USA) (IATA:CHO) | Meteo·Mobile Aviation Weather
aviador You're here:

KCHO Decoded Metar

CHARLOTTESVILLE in VA, USA
Report Time2019-04-18 19:53:00
UTC Time2019-04-18 20:44:34
Flight Rules vfr VFR
Wind180° at 13 Gusting to 22 kt
W.Decomp.*RWY 21: 12.1 kt HW 4.9 kt LCW
Visibility9999 m
Phenomena:N/A
Clouds:Scattered 037 Hf
Expected CloudBase > 6,400 ft AGL from Temp-Dew spread
CeilingNone
Temp28°C (ISA +14)
Dew Point12°C (37% RH)
Heat Index27.5°C
AAT23.9°C
QNH1011 hPa
Density Alt2,526 ft
Elevation630 ft
Report Wrong Elevation
Raw Report
METAR KCHO 181953Z 18013G22KT 10SM SCT037 28/12 A2985 RMK AO2 SLP102
T02830122=

Extra information for KCHO:More info

Metar Taf Metar & Taf Last 4 Metars F.Rules Stats Wind Profile Meteogram Temp Stats Airport Information Weather charts Add Link Nearby VenuesMetar ALERT Operation Metar Decoded Social comments

AIRNAV info for KCHO